sensor_id;sensor_type;location;lat;lon;timestamp;P1;durP1;ratioP1;P2;durP2;ratioP2
20721;SDS011;10522;52.198;9.890;2023-09-19T00:00:42;1.50;;;1.20;;
20721;SDS011;10522;52.198;9.890;2023-09-19T00:03:09;3.93;;;1.43;;
20721;SDS011;10522;52.198;9.890;2023-09-19T00:05:37;2.20;;;1.70;;
20721;SDS011;10522;52.198;9.890;2023-09-19T00:08:03;2.07;;;1.03;;
20721;SDS011;10522;52.198;9.890;2023-09-19T00:10:29;2.37;;;1.60;;
20721;SDS011;10522;52.198;9.890;2023-09-19T00:12:57;2.87;;;1.13;;
20721;SDS011;10522;52.198;9.890;2023-09-19T00:15:25;3.20;;;1.40;;
20721;SDS011;10522;52.198;9.890;2023-09-19T00:17:54;1.87;;;1.50;;
20721;SDS011;10522;52.198;9.890;2023-09-19T00:20:25;3.63;;;1.53;;
20721;SDS011;10522;52.198;9.890;2023-09-19T00:22:51;3.30;;;1.70;;
20721;SDS011;10522;52.198;9.890;2023-09-19T00:25:19;2.80;;;1.50;;
20721;SDS011;10522;52.198;9.890;2023-09-19T00:27:45;5.70;;;1.80;;
20721;SDS011;10522;52.198;9.890;2023-09-19T00:30:14;3.47;;;1.87;;
20721;SDS011;10522;52.198;9.890;2023-09-19T00:32:47;4.97;;;1.80;;
20721;SDS011;10522;52.198;9.890;2023-09-19T00:35:16;5.97;;;2.00;;
20721;SDS011;10522;52.198;9.890;2023-09-19T00:37:44;5.60;;;2.53;;
20721;SDS011;10522;52.198;9.890;2023-09-19T00:40:10;6.73;;;3.50;;
20721;SDS011;10522;52.198;9.890;2023-09-19T00:45:25;5.47;;;3.33;;
20721;SDS011;10522;52.198;9.890;2023-09-19T00:47:50;6.10;;;2.70;;
20721;SDS011;10522;52.198;9.890;2023-09-19T00:50:20;4.40;;;1.90;;
20721;SDS011;10522;52.198;9.890;2023-09-19T00:52:53;5.30;;;2.63;;
20721;SDS011;10522;52.198;9.890;2023-09-19T00:55:23;4.80;;;2.70;;
20721;SDS011;10522;52.198;9.890;2023-09-19T00:57:49;5.33;;;2.60;;
20721;SDS011;10522;52.198;9.890;2023-09-19T01:00:18;3.77;;;2.30;;
20721;SDS011;10522;52.198;9.890;2023-09-19T01:02:55;4.20;;;3.00;;
20721;SDS011;10522;52.198;9.890;2023-09-19T01:05:20;3.63;;;2.90;;
20721;SDS011;10522;52.198;9.890;2023-09-19T01:07:46;4.20;;;2.80;;
20721;SDS011;10522;52.198;9.890;2023-09-19T01:10:16;6.27;;;3.50;;
20721;SDS011;10522;52.198;9.890;2023-09-19T01:24:16;4.17;;;3.60;;
20721;SDS011;10522;52.198;9.890;2023-09-19T01:29:49;7.60;;;3.13;;
20721;SDS011;10522;52.198;9.890;2023-09-19T01:32:16;4.67;;;3.33;;
20721;SDS011;10522;52.198;9.890;2023-09-19T01:34:46;6.33;;;3.40;;
20721;SDS011;10522;52.198;9.890;2023-09-19T01:37:21;4.03;;;3.47;;
20721;SDS011;10522;52.198;9.890;2023-09-19T01:39:56;7.43;;;3.50;;
20721;SDS011;10522;52.198;9.890;2023-09-19T01:42:54;7.97;;;3.30;;
20721;SDS011;10522;52.198;9.890;2023-09-19T01:48:39;5.57;;;3.63;;
20721;SDS011;10522;52.198;9.890;2023-09-19T01:51:21;9.07;;;3.97;;
20721;SDS011;10522;52.198;9.890;2023-09-19T01:57:07;6.63;;;3.00;;
20721;SDS011;10522;52.198;9.890;2023-09-19T02:02:54;9.67;;;3.53;;
20721;SDS011;10522;52.198;9.890;2023-09-19T02:05:23;5.77;;;3.37;;
20721;SDS011;10522;52.198;9.890;2023-09-19T02:07:50;10.90;;;3.20;;
20721;SDS011;10522;52.198;9.890;2023-09-19T02:10:18;5.30;;;3.23;;
20721;SDS011;10522;52.198;9.890;2023-09-19T02:12:43;7.37;;;3.53;;
20721;SDS011;10522;52.198;9.890;2023-09-19T02:15:10;5.47;;;3.30;;
20721;SDS011;10522;52.198;9.890;2023-09-19T02:17:35;9.80;;;3.57;;
20721;SDS011;10522;52.198;9.890;2023-09-19T02:20:01;7.00;;;3.63;;
20721;SDS011;10522;52.198;9.890;2023-09-19T02:22:28;11.57;;;4.13;;
20721;SDS011;10522;52.198;9.890;2023-09-19T02:24:54;7.80;;;3.60;;
20721;SDS011;10522;52.198;9.890;2023-09-19T02:27:34;8.07;;;3.83;;
20721;SDS011;10522;52.198;9.890;2023-09-19T02:29:59;9.30;;;4.20;;
20721;SDS011;10522;52.198;9.890;2023-09-19T02:32:29;8.27;;;3.50;;
20721;SDS011;10522;52.198;9.890;2023-09-19T02:34:56;8.83;;;4.07;;
20721;SDS011;10522;52.198;9.890;2023-09-19T02:37:23;6.53;;;3.73;;
20721;SDS011;10522;52.198;9.890;2023-09-19T02:39:49;3.90;;;2.90;;
20721;SDS011;10522;52.198;9.890;2023-09-19T02:42:19;7.73;;;4.43;;
20721;SDS011;10522;52.198;9.890;2023-09-19T02:44:54;8.30;;;4.27;;
20721;SDS011;10522;52.198;9.890;2023-09-19T02:47:21;9.47;;;4.47;;
20721;SDS011;10522;52.198;9.890;2023-09-19T02:49:47;8.87;;;5.10;;
20721;SDS011;10522;52.198;9.890;2023-09-19T02:52:14;8.57;;;4.07;;
20721;SDS011;10522;52.198;9.890;2023-09-19T02:54:40;12.53;;;4.73;;
20721;SDS011;10522;52.198;9.890;2023-09-19T02:57:07;11.47;;;4.90;;
20721;SDS011;10522;52.198;9.890;2023-09-19T02:59:33;5.43;;;3.27;;
20721;SDS011;10522;52.198;9.890;2023-09-19T03:02:02;8.53;;;5.07;;
20721;SDS011;10522;52.198;9.890;2023-09-19T03:09:55;9.17;;;3.80;;
20721;SDS011;10522;52.198;9.890;2023-09-19T03:12:22;10.03;;;3.77;;
20721;SDS011;10522;52.198;9.890;2023-09-19T03:17:57;5.57;;;3.07;;
20721;SDS011;10522;52.198;9.890;2023-09-19T03:23:38;7.50;;;4.00;;
20721;SDS011;10522;52.198;9.890;2023-09-19T03:26:17;6.67;;;4.10;;
20721;SDS011;10522;52.198;9.890;2023-09-19T03:28:43;6.30;;;4.00;;
20721;SDS011;10522;52.198;9.890;2023-09-19T03:31:09;8.07;;;5.03;;
20721;SDS011;10522;52.198;9.890;2023-09-19T03:33:37;6.60;;;5.10;;
20721;SDS011;10522;52.198;9.890;2023-09-19T03:36:03;9.93;;;5.80;;
20721;SDS011;10522;52.198;9.890;2023-09-19T03:38:37;10.47;;;6.03;;
20721;SDS011;10522;52.198;9.890;2023-09-19T03:44:10;11.43;;;5.20;;
20721;SDS011;10522;52.198;9.890;2023-09-19T03:46:35;10.67;;;5.30;;
20721;SDS011;10522;52.198;9.890;2023-09-19T03:49:01;9.30;;;5.40;;
20721;SDS011;10522;52.198;9.890;2023-09-19T03:51:28;11.43;;;6.67;;
20721;SDS011;10522;52.198;9.890;2023-09-19T03:53:53;11.13;;;6.27;;
20721;SDS011;10522;52.198;9.890;2023-09-19T03:56:19;13.63;;;6.33;;
20721;SDS011;10522;52.198;9.890;2023-09-19T03:58:44;15.90;;;7.10;;
20721;SDS011;10522;52.198;9.890;2023-09-19T04:01:10;11.03;;;5.50;;
20721;SDS011;10522;52.198;9.890;2023-09-19T04:03:36;9.97;;;6.13;;
20721;SDS011;10522;52.198;9.890;2023-09-19T04:06:13;13.03;;;5.50;;
20721;SDS011;10522;52.198;9.890;2023-09-19T04:08:39;10.40;;;5.93;;
20721;SDS011;10522;52.198;9.890;2023-09-19T04:11:05;13.43;;;5.87;;
20721;SDS011;10522;52.198;9.890;2023-09-19T04:13:31;11.40;;;6.17;;
20721;SDS011;10522;52.198;9.890;2023-09-19T04:15:57;12.30;;;6.80;;
20721;SDS011;10522;52.198;9.890;2023-09-19T04:18:22;14.27;;;6.40;;
20721;SDS011;10522;52.198;9.890;2023-09-19T04:20:52;10.03;;;6.60;;
20721;SDS011;10522;52.198;9.890;2023-09-19T04:23:18;15.13;;;5.90;;
20721;SDS011;10522;52.198;9.890;2023-09-19T04:25:45;13.03;;;5.90;;
20721;SDS011;10522;52.198;9.890;2023-09-19T04:28:11;11.97;;;5.73;;
20721;SDS011;10522;52.198;9.890;2023-09-19T04:30:37;11.30;;;5.93;;
20721;SDS011;10522;52.198;9.890;2023-09-19T04:33:05;11.37;;;5.50;;
20721;SDS011;10522;52.198;9.890;2023-09-19T04:35:31;15.00;;;6.57;;
20721;SDS011;10522;52.198;9.890;2023-09-19T04:37:57;11.77;;;5.50;;
20721;SDS011;10522;52.198;9.890;2023-09-19T04:40:23;9.83;;;5.63;;
20721;SDS011;10522;52.198;9.890;2023-09-19T04:42:58;11.83;;;5.57;;
20721;SDS011;10522;52.198;9.890;2023-09-19T04:45:27;10.13;;;5.53;;
20721;SDS011;10522;52.198;9.890;2023-09-19T04:47:54;9.20;;;5.20;;
20721;SDS011;10522;52.198;9.890;2023-09-19T04:50:20;12.53;;;4.73;;
20721;SDS011;10522;52.198;9.890;2023-09-19T04:52:52;8.83;;;4.73;;
20721;SDS011;10522;52.198;9.890;2023-09-19T04:55:18;8.63;;;4.60;;
20721;SDS011;10522;52.198;9.890;2023-09-19T04:57:45;6.53;;;4.33;;
20721;SDS011;10522;52.198;9.890;2023-09-19T05:00:15;10.80;;;4.80;;
20721;SDS011;10522;52.198;9.890;2023-09-19T05:02:44;7.10;;;4.80;;
20721;SDS011;10522;52.198;9.890;2023-09-19T05:05:11;9.77;;;5.10;;
20721;SDS011;10522;52.198;9.890;2023-09-19T05:07:41;11.83;;;5.33;;
20721;SDS011;10522;52.198;9.890;2023-09-19T05:10:07;8.07;;;4.63;;
20721;SDS011;10522;52.198;9.890;2023-09-19T05:12:36;8.67;;;4.73;;
20721;SDS011;10522;52.198;9.890;2023-09-19T05:15:03;7.17;;;4.70;;
20721;SDS011;10522;52.198;9.890;2023-09-19T05:17:29;11.00;;;4.90;;
20721;SDS011;10522;52.198;9.890;2023-09-19T05:19:56;13.60;;;4.37;;
20721;SDS011;10522;52.198;9.890;2023-09-19T05:22:23;10.03;;;5.83;;
20721;SDS011;10522;52.198;9.890;2023-09-19T05:24:51;8.47;;;3.97;;
20721;SDS011;10522;52.198;9.890;2023-09-19T05:27:18;14.43;;;4.80;;
20721;SDS011;10522;52.198;9.890;2023-09-19T05:29:46;11.20;;;4.53;;
20721;SDS011;10522;52.198;9.890;2023-09-19T05:32:11;11.60;;;4.40;;
20721;SDS011;10522;52.198;9.890;2023-09-19T05:34:45;13.20;;;4.93;;
20721;SDS011;10522;52.198;9.890;2023-09-19T05:40:17;13.30;;;4.83;;
20721;SDS011;10522;52.198;9.890;2023-09-19T05:43:00;16.87;;;6.27;;
20721;SDS011;10522;52.198;9.890;2023-09-19T05:45:27;10.03;;;4.97;;
20721;SDS011;10522;52.198;9.890;2023-09-19T05:47:54;14.90;;;5.40;;
20721;SDS011;10522;52.198;9.890;2023-09-19T05:50:30;8.93;;;4.20;;
20721;SDS011;10522;52.198;9.890;2023-09-19T05:55:56;8.97;;;4.30;;
20721;SDS011;10522;52.198;9.890;2023-09-19T05:58:23;12.13;;;4.60;;
20721;SDS011;10522;52.198;9.890;2023-09-19T06:00:49;12.50;;;5.00;;
20721;SDS011;10522;52.198;9.890;2023-09-19T06:03:15;9.77;;;4.53;;
20721;SDS011;10522;52.198;9.890;2023-09-19T06:05:42;12.33;;;4.93;;
20721;SDS011;10522;52.198;9.890;2023-09-19T06:08:09;8.47;;;4.23;;
20721;SDS011;10522;52.198;9.890;2023-09-19T06:10:35;10.33;;;4.37;;
20721;SDS011;10522;52.198;9.890;2023-09-19T06:13:04;12.83;;;3.80;;
20721;SDS011;10522;52.198;9.890;2023-09-19T06:15:31;14.30;;;4.83;;
20721;SDS011;10522;52.198;9.890;2023-09-19T06:17:59;11.27;;;4.60;;
20721;SDS011;10522;52.198;9.890;2023-09-19T06:20:25;8.17;;;4.50;;
20721;SDS011;10522;52.198;9.890;2023-09-19T06:22:51;14.07;;;4.80;;
20721;SDS011;10522;52.198;9.890;2023-09-19T06:25:18;9.47;;;4.27;;
20721;SDS011;10522;52.198;9.890;2023-09-19T06:30:48;14.17;;;4.70;;
20721;SDS011;10522;52.198;9.890;2023-09-19T06:33:13;11.20;;;4.47;;
20721;SDS011;10522;52.198;9.890;2023-09-19T06:35:39;9.00;;;5.10;;
20721;SDS011;10522;52.198;9.890;2023-09-19T06:38:04;15.77;;;5.00;;
20721;SDS011;10522;52.198;9.890;2023-09-19T06:40:30;18.87;;;4.70;;
20721;SDS011;10522;52.198;9.890;2023-09-19T06:42:56;9.40;;;4.37;;
20721;SDS011;10522;52.198;9.890;2023-09-19T06:45:23;11.47;;;4.07;;
20721;SDS011;10522;52.198;9.890;2023-09-19T06:47:51;12.53;;;4.13;;
20721;SDS011;10522;52.198;9.890;2023-09-19T06:50:17;12.97;;;4.10;;
20721;SDS011;10522;52.198;9.890;2023-09-19T06:53:03;10.97;;;3.83;;
20721;SDS011;10522;52.198;9.890;2023-09-19T06:58:24;10.80;;;3.13;;
20721;SDS011;10522;52.198;9.890;2023-09-19T07:01:04;14.10;;;3.30;;
20721;SDS011;10522;52.198;9.890;2023-09-19T07:03:29;12.60;;;3.77;;
20721;SDS011;10522;52.198;9.890;2023-09-19T07:08:44;6.80;;;2.77;;
20721;SDS011;10522;52.198;9.890;2023-09-19T07:11:10;13.93;;;3.60;;
20721;SDS011;10522;52.198;9.890;2023-09-19T07:13:37;12.53;;;3.27;;
20721;SDS011;10522;52.198;9.890;2023-09-19T07:16:03;7.93;;;2.23;;
20721;SDS011;10522;52.198;9.890;2023-09-19T07:18:29;11.90;;;2.67;;
20721;SDS011;10522;52.198;9.890;2023-09-19T07:21:05;6.53;;;2.70;;
20721;SDS011;10522;52.198;9.890;2023-09-19T07:23:37;9.63;;;2.83;;
20721;SDS011;10522;52.198;9.890;2023-09-19T07:26:03;10.80;;;2.83;;
20721;SDS011;10522;52.198;9.890;2023-09-19T07:28:30;10.37;;;2.60;;
20721;SDS011;10522;52.198;9.890;2023-09-19T07:30:57;6.57;;;1.93;;
20721;SDS011;10522;52.198;9.890;2023-09-19T07:33:27;13.07;;;3.17;;
20721;SDS011;10522;52.198;9.890;2023-09-19T07:35:53;9.37;;;2.63;;
20721;SDS011;10522;52.198;9.890;2023-09-19T07:40:48;11.33;;;2.07;;
20721;SDS011;10522;52.198;9.890;2023-09-19T07:43:14;11.90;;;3.03;;
20721;SDS011;10522;52.198;9.890;2023-09-19T07:45:39;7.70;;;2.40;;
20721;SDS011;10522;52.198;9.890;2023-09-19T07:48:18;9.83;;;2.43;;
20721;SDS011;10522;52.198;9.890;2023-09-19T07:50:43;12.40;;;2.30;;
20721;SDS011;10522;52.198;9.890;2023-09-19T07:53:09;11.63;;;2.33;;
20721;SDS011;10522;52.198;9.890;2023-09-19T07:55:38;12.67;;;2.77;;
20721;SDS011;10522;52.198;9.890;2023-09-19T07:58:06;9.00;;;2.43;;
20721;SDS011;10522;52.198;9.890;2023-09-19T08:00:32;7.93;;;2.30;;
20721;SDS011;10522;52.198;9.890;2023-09-19T08:02:59;10.53;;;2.60;;
20721;SDS011;10522;52.198;9.890;2023-09-19T08:05:25;11.20;;;2.40;;
20721;SDS011;10522;52.198;9.890;2023-09-19T08:07:51;10.73;;;2.30;;
20721;SDS011;10522;52.198;9.890;2023-09-19T08:10:18;9.60;;;2.23;;
20721;SDS011;10522;52.198;9.890;2023-09-19T08:12:45;7.50;;;2.23;;
20721;SDS011;10522;52.198;9.890;2023-09-19T08:15:15;12.17;;;2.47;;
20721;SDS011;10522;52.198;9.890;2023-09-19T08:17:44;10.57;;;2.90;;
20721;SDS011;10522;52.198;9.890;2023-09-19T08:20:11;15.97;;;2.50;;
20721;SDS011;10522;52.198;9.890;2023-09-19T08:22:48;10.87;;;2.43;;
20721;SDS011;10522;52.198;9.890;2023-09-19T08:25:20;7.67;;;2.57;;
20721;SDS011;10522;52.198;9.890;2023-09-19T08:27:47;9.47;;;2.00;;
20721;SDS011;10522;52.198;9.890;2023-09-19T08:30:15;13.20;;;2.07;;
20721;SDS011;10522;52.198;9.890;2023-09-19T08:32:43;10.47;;;2.40;;
20721;SDS011;10522;52.198;9.890;2023-09-19T08:38:00;9.57;;;1.50;;
20721;SDS011;10522;52.198;9.890;2023-09-19T08:40:29;9.73;;;2.10;;
20721;SDS011;10522;52.198;9.890;2023-09-19T08:42:58;8.50;;;2.40;;
20721;SDS011;10522;52.198;9.890;2023-09-19T08:45:25;6.70;;;2.90;;
20721;SDS011;10522;52.198;9.890;2023-09-19T08:50:31;8.23;;;2.43;;
20721;SDS011;10522;52.198;9.890;2023-09-19T08:53:01;9.00;;;2.20;;
20721;SDS011;10522;52.198;9.890;2023-09-19T08:55:35;7.53;;;2.00;;
20721;SDS011;10522;52.198;9.890;2023-09-19T08:58:03;8.07;;;2.20;;
20721;SDS011;10522;52.198;9.890;2023-09-19T09:00:32;7.43;;;2.07;;
20721;SDS011;10522;52.198;9.890;2023-09-19T09:02:59;9.33;;;2.40;;
20721;SDS011;10522;52.198;9.890;2023-09-19T09:05:28;8.97;;;1.90;;
20721;SDS011;10522;52.198;9.890;2023-09-19T09:07:55;8.73;;;2.17;;
20721;SDS011;10522;52.198;9.890;2023-09-19T09:10:21;7.87;;;1.90;;
20721;SDS011;10522;52.198;9.890;2023-09-19T09:12:51;9.87;;;2.20;;
20721;SDS011;10522;52.198;9.890;2023-09-19T09:15:21;8.23;;;2.37;;
20721;SDS011;10522;52.198;9.890;2023-09-19T09:17:48;5.97;;;1.63;;
20721;SDS011;10522;52.198;9.890;2023-09-19T09:20:15;8.87;;;2.30;;
20721;SDS011;10522;52.198;9.890;2023-09-19T09:22:55;10.77;;;2.30;;
20721;SDS011;10522;52.198;9.890;2023-09-19T09:25:27;7.10;;;1.80;;
20721;SDS011;10522;52.198;9.890;2023-09-19T09:28:19;7.77;;;2.60;;
20721;SDS011;10522;52.198;9.890;2023-09-19T09:30:46;6.33;;;2.03;;
20721;SDS011;10522;52.198;9.890;2023-09-19T09:33:13;7.60;;;2.10;;
20721;SDS011;10522;52.198;9.890;2023-09-19T09:35:54;8.30;;;2.20;;
20721;SDS011;10522;52.198;9.890;2023-09-19T09:38:22;9.77;;;2.53;;
20721;SDS011;10522;52.198;9.890;2023-09-19T09:40:53;6.83;;;2.27;;
20721;SDS011;10522;52.198;9.890;2023-09-19T09:43:38;8.50;;;2.33;;
20721;SDS011;10522;52.198;9.890;2023-09-19T09:48:45;9.30;;;2.00;;
20721;SDS011;10522;52.198;9.890;2023-09-19T09:51:32;5.97;;;2.13;;
20721;SDS011;10522;52.198;9.890;2023-09-19T09:54:11;7.57;;;1.80;;
20721;SDS011;10522;52.198;9.890;2023-09-19T10:02:17;7.13;;;2.20;;
20721;SDS011;10522;52.198;9.890;2023-09-19T10:04:53;8.13;;;2.60;;
20721;SDS011;10522;52.198;9.890;2023-09-19T10:07:24;9.07;;;2.30;;
20721;SDS011;10522;52.198;9.890;2023-09-19T10:09:53;7.90;;;2.13;;
20721;SDS011;10522;52.198;9.890;2023-09-19T10:12:24;11.47;;;3.10;;
20721;SDS011;10522;52.198;9.890;2023-09-19T10:14:53;8.63;;;2.23;;
20721;SDS011;10522;52.198;9.890;2023-09-19T10:17:22;10.83;;;2.37;;
20721;SDS011;10522;52.198;9.890;2023-09-19T10:19:56;5.37;;;2.20;;
20721;SDS011;10522;52.198;9.890;2023-09-19T10:22:30;10.27;;;2.43;;
20721;SDS011;10522;52.198;9.890;2023-09-19T10:25:00;12.23;;;2.60;;
20721;SDS011;10522;52.198;9.890;2023-09-19T10:27:28;9.27;;;2.13;;
20721;SDS011;10522;52.198;9.890;2023-09-19T10:30:02;8.43;;;2.10;;
20721;SDS011;10522;52.198;9.890;2023-09-19T10:32:32;13.00;;;2.53;;
20721;SDS011;10522;52.198;9.890;2023-09-19T10:35:00;8.77;;;2.37;;
20721;SDS011;10522;52.198;9.890;2023-09-19T10:37:30;8.93;;;2.50;;
20721;SDS011;10522;52.198;9.890;2023-09-19T10:39:59;8.73;;;2.13;;
20721;SDS011;10522;52.198;9.890;2023-09-19T10:42:25;11.80;;;2.57;;
20721;SDS011;10522;52.198;9.890;2023-09-19T10:44:54;7.67;;;2.67;;
20721;SDS011;10522;52.198;9.890;2023-09-19T10:47:25;9.77;;;2.10;;
20721;SDS011;10522;52.198;9.890;2023-09-19T10:49:51;9.17;;;2.60;;
20721;SDS011;10522;52.198;9.890;2023-09-19T10:52:18;11.60;;;2.80;;
20721;SDS011;10522;52.198;9.890;2023-09-19T10:54:50;6.60;;;2.03;;
20721;SDS011;10522;52.198;9.890;2023-09-19T10:57:23;7.43;;;2.57;;
20721;SDS011;10522;52.198;9.890;2023-09-19T11:00:05;9.60;;;2.60;;
20721;SDS011;10522;52.198;9.890;2023-09-19T11:05:39;10.63;;;2.43;;
20721;SDS011;10522;52.198;9.890;2023-09-19T11:08:09;9.07;;;2.33;;
20721;SDS011;10522;52.198;9.890;2023-09-19T11:10:50;9.27;;;2.80;;
20721;SDS011;10522;52.198;9.890;2023-09-19T11:13:26;6.97;;;2.60;;
20721;SDS011;10522;52.198;9.890;2023-09-19T11:19:10;9.03;;;2.70;;
20721;SDS011;10522;52.198;9.890;2023-09-19T11:26:57;8.43;;;2.67;;
20721;SDS011;10522;52.198;9.890;2023-09-19T11:29:35;9.80;;;2.30;;
20721;SDS011;10522;52.198;9.890;2023-09-19T11:32:02;8.10;;;2.80;;
20721;SDS011;10522;52.198;9.890;2023-09-19T11:39:36;6.17;;;2.07;;
20721;SDS011;10522;52.198;9.890;2023-09-19T11:45:06;10.17;;;2.50;;
20721;SDS011;10522;52.198;9.890;2023-09-19T11:47:32;10.03;;;2.23;;
20721;SDS011;10522;52.198;9.890;2023-09-19T11:50:00;7.63;;;2.67;;
20721;SDS011;10522;52.198;9.890;2023-09-19T11:52:26;10.50;;;3.27;;
20721;SDS011;10522;52.198;9.890;2023-09-19T11:54:59;10.00;;;2.90;;
20721;SDS011;10522;52.198;9.890;2023-09-19T11:57:27;8.60;;;2.37;;
20721;SDS011;10522;52.198;9.890;2023-09-19T11:59:55;14.17;;;2.87;;
20721;SDS011;10522;52.198;9.890;2023-09-19T12:02:38;6.97;;;2.77;;
20721;SDS011;10522;52.198;9.890;2023-09-19T12:05:06;10.63;;;2.70;;
20721;SDS011;10522;52.198;9.890;2023-09-19T12:07:41;5.63;;;2.33;;
20721;SDS011;10522;52.198;9.890;2023-09-19T12:10:18;9.00;;;2.57;;
20721;SDS011;10522;52.198;9.890;2023-09-19T12:12:47;7.07;;;2.60;;
20721;SDS011;10522;52.198;9.890;2023-09-19T12:15:22;8.33;;;2.47;;
20721;SDS011;10522;52.198;9.890;2023-09-19T12:17:53;8.20;;;2.90;;
20721;SDS011;10522;52.198;9.890;2023-09-19T12:20:19;6.27;;;2.37;;
20721;SDS011;10522;52.198;9.890;2023-09-19T12:22:46;11.90;;;2.87;;
20721;SDS011;10522;52.198;9.890;2023-09-19T12:25:12;5.87;;;2.50;;
20721;SDS011;10522;52.198;9.890;2023-09-19T12:30:14;11.23;;;3.00;;
20721;SDS011;10522;52.198;9.890;2023-09-19T12:32:43;7.77;;;2.20;;
20721;SDS011;10522;52.198;9.890;2023-09-19T12:35:09;9.53;;;2.43;;
20721;SDS011;10522;52.198;9.890;2023-09-19T12:37:45;10.00;;;3.03;;
20721;SDS011;10522;52.198;9.890;2023-09-19T12:40:18;10.43;;;3.10;;
20721;SDS011;10522;52.198;9.890;2023-09-19T12:42:50;8.07;;;2.73;;
20721;SDS011;10522;52.198;9.890;2023-09-19T12:45:20;7.57;;;2.00;;
20721;SDS011;10522;52.198;9.890;2023-09-19T12:51:06;6.83;;;2.30;;
20721;SDS011;10522;52.198;9.890;2023-09-19T12:53:34;8.07;;;2.57;;
20721;SDS011;10522;52.198;9.890;2023-09-19T12:56:21;7.90;;;2.83;;
20721;SDS011;10522;52.198;9.890;2023-09-19T13:01:14;13.67;;;2.97;;
20721;SDS011;10522;52.198;9.890;2023-09-19T13:03:41;7.00;;;2.67;;
20721;SDS011;10522;52.198;9.890;2023-09-19T13:06:07;7.37;;;2.43;;
20721;SDS011;10522;52.198;9.890;2023-09-19T13:08:35;7.83;;;2.80;;
20721;SDS011;10522;52.198;9.890;2023-09-19T13:13:35;8.60;;;2.67;;
20721;SDS011;10522;52.198;9.890;2023-09-19T13:16:02;9.03;;;2.57;;
20721;SDS011;10522;52.198;9.890;2023-09-19T13:18:49;6.30;;;2.40;;
20721;SDS011;10522;52.198;9.890;2023-09-19T13:21:32;10.07;;;2.23;;
20721;SDS011;10522;52.198;9.890;2023-09-19T13:24:18;8.23;;;2.90;;
20721;SDS011;10522;52.198;9.890;2023-09-19T13:26:45;7.07;;;2.43;;
20721;SDS011;10522;52.198;9.890;2023-09-19T13:29:11;4.97;;;2.37;;
20721;SDS011;10522;52.198;9.890;2023-09-19T13:31:37;7.27;;;2.67;;
20721;SDS011;10522;52.198;9.890;2023-09-19T13:34:06;9.30;;;3.10;;
20721;SDS011;10522;52.198;9.890;2023-09-19T13:36:32;8.67;;;3.13;;
20721;SDS011;10522;52.198;9.890;2023-09-19T13:38:58;9.23;;;2.90;;
20721;SDS011;10522;52.198;9.890;2023-09-19T13:41:25;8.67;;;2.73;;
20721;SDS011;10522;52.198;9.890;2023-09-19T13:43:51;7.70;;;2.30;;
20721;SDS011;10522;52.198;9.890;2023-09-19T13:46:17;9.00;;;2.60;;
20721;SDS011;10522;52.198;9.890;2023-09-19T13:48:50;4.90;;;2.40;;
20721;SDS011;10522;52.198;9.890;2023-09-19T13:51:19;5.43;;;2.70;;
20721;SDS011;10522;52.198;9.890;2023-09-19T13:53:48;7.73;;;2.40;;
20721;SDS011;10522;52.198;9.890;2023-09-19T13:56:13;6.47;;;2.70;;
20721;SDS011;10522;52.198;9.890;2023-09-19T13:58:39;9.83;;;3.10;;
20721;SDS011;10522;52.198;9.890;2023-09-19T14:01:07;10.40;;;2.70;;
20721;SDS011;10522;52.198;9.890;2023-09-19T14:03:38;6.77;;;2.70;;
20721;SDS011;10522;52.198;9.890;2023-09-19T14:06:15;8.60;;;2.63;;
20721;SDS011;10522;52.198;9.890;2023-09-19T14:08:41;8.33;;;2.77;;
20721;SDS011;10522;52.198;9.890;2023-09-19T14:11:08;5.10;;;2.30;;
20721;SDS011;10522;52.198;9.890;2023-09-19T14:13:34;4.63;;;2.40;;
20721;SDS011;10522;52.198;9.890;2023-09-19T14:16:03;8.13;;;2.77;;
20721;SDS011;10522;52.198;9.890;2023-09-19T14:18:30;7.33;;;2.00;;
20721;SDS011;10522;52.198;9.890;2023-09-19T14:20:56;7.53;;;2.37;;
20721;SDS011;10522;52.198;9.890;2023-09-19T14:23:22;4.97;;;2.50;;
20721;SDS011;10522;52.198;9.890;2023-09-19T14:25:48;7.47;;;2.60;;
20721;SDS011;10522;52.198;9.890;2023-09-19T14:28:18;6.43;;;2.63;;
20721;SDS011;10522;52.198;9.890;2023-09-19T14:30:44;5.90;;;2.63;;
20721;SDS011;10522;52.198;9.890;2023-09-19T14:33:11;8.57;;;2.07;;
20721;SDS011;10522;52.198;9.890;2023-09-19T14:35:54;5.90;;;2.60;;
20721;SDS011;10522;52.198;9.890;2023-09-19T14:38:30;5.07;;;2.30;;
20721;SDS011;10522;52.198;9.890;2023-09-19T14:43:58;8.47;;;2.50;;
20721;SDS011;10522;52.198;9.890;2023-09-19T14:46:24;8.10;;;2.20;;
20721;SDS011;10522;52.198;9.890;2023-09-19T14:48:53;7.17;;;2.67;;
20721;SDS011;10522;52.198;9.890;2023-09-19T14:51:19;5.10;;;2.23;;
20721;SDS011;10522;52.198;9.890;2023-09-19T14:53:45;5.83;;;2.03;;
20721;SDS011;10522;52.198;9.890;2023-09-19T14:56:12;9.13;;;2.63;;
20721;SDS011;10522;52.198;9.890;2023-09-19T14:58:43;7.57;;;2.50;;
20721;SDS011;10522;52.198;9.890;2023-09-19T15:01:11;4.87;;;2.03;;
20721;SDS011;10522;52.198;9.890;2023-09-19T15:03:41;5.17;;;1.83;;
20721;SDS011;10522;52.198;9.890;2023-09-19T15:06:10;4.30;;;1.90;;
20721;SDS011;10522;52.198;9.890;2023-09-19T15:09:02;9.43;;;3.17;;
20721;SDS011;10522;52.198;9.890;2023-09-19T15:11:32;8.63;;;2.37;;
20721;SDS011;10522;52.198;9.890;2023-09-19T15:13:58;4.80;;;1.93;;
20721;SDS011;10522;52.198;9.890;2023-09-19T15:16:25;6.60;;;2.27;;
20721;SDS011;10522;52.198;9.890;2023-09-19T15:18:52;8.47;;;2.20;;
20721;SDS011;10522;52.198;9.890;2023-09-19T15:21:20;4.00;;;1.90;;
20721;SDS011;10522;52.198;9.890;2023-09-19T15:23:46;4.37;;;1.60;;
20721;SDS011;10522;52.198;9.890;2023-09-19T15:26:12;6.47;;;2.30;;
20721;SDS011;10522;52.198;9.890;2023-09-19T15:28:39;4.77;;;2.03;;
20721;SDS011;10522;52.198;9.890;2023-09-19T15:31:12;3.97;;;1.60;;
20721;SDS011;10522;52.198;9.890;2023-09-19T15:33:39;5.90;;;1.80;;
20721;SDS011;10522;52.198;9.890;2023-09-19T15:36:06;4.13;;;1.73;;
20721;SDS011;10522;52.198;9.890;2023-09-19T15:41:40;7.17;;;1.87;;
20721;SDS011;10522;52.198;9.890;2023-09-19T15:44:13;7.07;;;1.80;;
20721;SDS011;10522;52.198;9.890;2023-09-19T15:46:41;6.57;;;1.57;;
20721;SDS011;10522;52.198;9.890;2023-09-19T15:49:10;6.23;;;1.73;;
20721;SDS011;10522;52.198;9.890;2023-09-19T15:51:38;4.97;;;2.10;;
20721;SDS011;10522;52.198;9.890;2023-09-19T15:54:09;4.40;;;1.93;;
20721;SDS011;10522;52.198;9.890;2023-09-19T15:56:42;6.10;;;1.97;;
20721;SDS011;10522;52.198;9.890;2023-09-19T15:59:11;5.10;;;2.13;;
20721;SDS011;10522;52.198;9.890;2023-09-19T16:01:43;4.67;;;2.10;;
20721;SDS011;10522;52.198;9.890;2023-09-19T16:04:11;5.60;;;2.07;;
20721;SDS011;10522;52.198;9.890;2023-09-19T16:06:38;6.97;;;1.97;;
20721;SDS011;10522;52.198;9.890;2023-09-19T16:09:04;5.40;;;1.83;;
20721;SDS011;10522;52.198;9.890;2023-09-19T16:11:34;5.93;;;1.80;;
20721;SDS011;10522;52.198;9.890;2023-09-19T16:14:00;3.73;;;1.33;;
20721;SDS011;10522;52.198;9.890;2023-09-19T16:16:28;5.17;;;1.97;;
20721;SDS011;10522;52.198;9.890;2023-09-19T16:18:56;5.10;;;1.70;;
20721;SDS011;10522;52.198;9.890;2023-09-19T16:21:30;6.67;;;1.73;;
20721;SDS011;10522;52.198;9.890;2023-09-19T16:23:57;7.90;;;2.10;;
20721;SDS011;10522;52.198;9.890;2023-09-19T16:26:24;8.80;;;2.10;;
20721;SDS011;10522;52.198;9.890;2023-09-19T16:28:54;5.77;;;1.67;;
20721;SDS011;10522;52.198;9.890;2023-09-19T16:31:25;5.83;;;1.90;;
20721;SDS011;10522;52.198;9.890;2023-09-19T16:33:52;5.40;;;2.00;;
20721;SDS011;10522;52.198;9.890;2023-09-19T16:36:18;6.27;;;2.10;;
20721;SDS011;10522;52.198;9.890;2023-09-19T16:38:46;3.77;;;1.83;;
20721;SDS011;10522;52.198;9.890;2023-09-19T16:41:15;6.47;;;2.20;;
20721;SDS011;10522;52.198;9.890;2023-09-19T16:43:44;9.47;;;2.40;;